createdAt,value
2018-07-10T00:04:50.060Z,94.80
2018-07-10T00:10:11.168Z,94.60
2018-07-10T00:15:14.345Z,94.30
2018-07-10T00:20:17.416Z,93.70
2018-07-10T00:25:20.456Z,93.60
2018-07-10T00:30:23.712Z,93.90
2018-07-10T00:35:26.773Z,93.90
2018-07-10T00:40:29.853Z,93.80
2018-07-10T00:45:32.927Z,93.90
2018-07-10T00:50:36.260Z,94.20
2018-07-10T00:55:39.335Z,94.40
2018-07-10T01:00:44.529Z,93.50
2018-07-10T01:05:47.614Z,93.70
2018-07-10T01:10:55.105Z,93.90
2018-07-10T01:15:59.211Z,93.30
2018-07-10T01:21:02.325Z,93.70
2018-07-10T01:26:05.399Z,93.90
2018-07-10T01:31:08.451Z,93.80
2018-07-10T01:36:11.529Z,93.90
2018-07-10T01:41:14.851Z,94.00
2018-07-10T01:46:17.924Z,93.90
2018-07-10T01:51:20.991Z,93.80
2018-07-10T02:01:26.940Z,94.40
2018-07-10T02:06:30.569Z,94.50
2018-07-10T02:11:33.763Z,94.70
2018-07-10T02:16:36.916Z,95.30
2018-07-10T02:21:40.070Z,95.10
2018-07-10T02:26:43.144Z,95.60
2018-07-10T02:31:46.210Z,95.70
2018-07-10T02:36:49.298Z,95.90
2018-07-10T02:41:52.952Z,96.20
2018-07-10T02:46:56.060Z,96.30
2018-07-10T02:52:01.219Z,96.50
2018-07-10T02:57:06.732Z,96.70
2018-07-10T03:02:19.996Z,97.00
2018-07-10T03:07:23.055Z,96.90
2018-07-10T03:12:28.597Z,96.90
2018-07-10T03:17:31.944Z,97.20
2018-07-10T03:22:35.292Z,97.90
2018-07-10T03:27:38.403Z,98.10
2018-07-10T03:32:41.466Z,98.00
2018-07-10T03:42:47.586Z,97.90
2018-07-10T03:52:54.096Z,97.80
2018-07-10T03:57:57.833Z,98.20
2018-07-10T04:03:00.892Z,98.10
2018-07-10T04:08:05.397Z,98.20
2018-07-10T04:13:17.790Z,98.20
2018-07-10T04:18:23.436Z,98.80
2018-07-10T04:23:31.260Z,97.90
2018-07-10T04:28:35.074Z,99.10
2018-07-10T04:43:50.531Z,98.90
2018-07-10T04:55:09.708Z,99.30
2018-07-10T05:00:12.807Z,99.70
2018-07-10T05:05:15.911Z,99.60
2018-07-10T05:10:19.071Z,99.80
2018-07-10T05:15:22.165Z,99.70
2018-07-10T05:20:25.984Z,99.90
2018-07-10T05:25:29.098Z,99.90
2018-07-10T05:30:32.421Z,99.90
2018-07-10T05:35:35.550Z,99.90
2018-07-10T05:40:38.622Z,99.90
2018-07-10T05:45:41.957Z,99.90
2018-07-10T05:50:45.125Z,99.90
2018-07-10T05:55:49.235Z,99.90
2018-07-10T06:00:52.317Z,99.90
2018-07-10T06:05:55.378Z,99.90
2018-07-10T06:10:58.544Z,99.90
2018-07-10T06:16:01.722Z,99.90
2018-07-10T06:21:04.793Z,99.90
2018-07-10T06:26:07.945Z,99.90
2018-07-10T06:31:12.820Z,99.90
2018-07-10T06:36:25.876Z,99.90
2018-07-10T06:46:38.726Z,99.90
2018-07-10T06:51:41.875Z,99.90
2018-07-10T06:56:46.984Z,99.90
2018-07-10T07:01:50.016Z,99.90
2018-07-10T07:06:53.053Z,99.90
2018-07-10T07:11:56.120Z,99.90
2018-07-10T07:16:59.202Z,99.90
2018-07-10T07:22:02.357Z,99.90
2018-07-10T07:27:05.397Z,99.90
2018-07-10T07:37:11.373Z,99.90
2018-07-10T07:42:14.785Z,99.90
2018-07-10T07:47:21.448Z,99.90
2018-07-10T07:52:25.069Z,99.90
2018-07-10T07:57:28.220Z,99.90
2018-07-10T08:02:31.264Z,99.90
2018-07-10T08:07:34.306Z,99.90
2018-07-10T08:12:37.437Z,99.90
2018-07-10T08:17:40.524Z,99.90
2018-07-10T08:27:46.600Z,99.90
2018-07-10T08:32:49.853Z,99.90
2018-07-10T08:37:53.053Z,99.90
2018-07-10T08:42:56.134Z,99.90
2018-07-10T08:48:00.954Z,99.90
2018-07-10T08:53:04.025Z,99.90
2018-07-10T08:58:07.083Z,99.90
2018-07-10T09:03:10.172Z,99.90
2018-07-10T09:08:13.246Z,99.90
2018-07-10T09:13:16.289Z,99.90
2018-07-10T09:18:19.381Z,99.90
2018-07-10T09:23:22.410Z,99.90
2018-07-10T09:28:26.090Z,99.90
2018-07-10T09:33:29.324Z,99.90
2018-07-10T09:38:33.184Z,99.90
2018-07-10T09:43:36.612Z,99.90
2018-07-10T09:48:39.715Z,99.90
2018-07-10T09:53:42.843Z,99.60
2018-07-10T09:58:45.895Z,98.60
2018-07-10T10:03:50.726Z,98.20
2018-07-10T10:08:53.891Z,97.00
2018-07-10T10:13:56.970Z,96.20
2018-07-10T10:19:00.103Z,97.00
2018-07-10T10:24:03.221Z,97.20
2018-07-10T10:29:06.302Z,97.80
2018-07-10T10:34:09.422Z,97.70
2018-07-10T10:39:12.499Z,98.90
2018-07-10T10:44:15.634Z,99.00
2018-07-10T10:49:18.757Z,99.90
2018-07-10T10:54:21.864Z,99.10
2018-07-10T10:59:24.927Z,99.70
2018-07-10T11:04:28.036Z,99.20
2018-07-10T11:09:31.171Z,99.40
2018-07-10T11:14:34.285Z,99.60
2018-07-10T11:19:40.134Z,98.60
2018-07-10T11:25:04.805Z,98.50
2018-07-10T11:30:07.870Z,98.40
2018-07-10T11:35:10.920Z,97.60
2018-07-10T11:40:14.037Z,97.50
2018-07-10T11:45:17.275Z,98.50
2018-07-10T11:50:20.752Z,98.60
2018-07-10T11:55:23.847Z,99.50
2018-07-10T12:00:27.016Z,99.70
2018-07-10T12:05:34.934Z,99.90
2018-07-10T12:10:38.201Z,99.90
2018-07-10T12:15:42.295Z,99.90
2018-07-10T12:20:45.489Z,99.90
2018-07-10T12:25:48.557Z,99.90
2018-07-10T12:30:51.640Z,99.90
2018-07-10T12:35:54.765Z,99.90
2018-07-10T12:40:57.874Z,99.90
2018-07-10T12:46:01.110Z,99.90
2018-07-10T12:51:04.461Z,99.90
2018-07-10T12:56:07.586Z,99.90
2018-07-10T13:01:10.652Z,99.90
2018-07-10T13:06:14.402Z,99.90
2018-07-10T13:11:17.532Z,99.90
2018-07-10T13:16:20.650Z,99.90
2018-07-10T13:21:23.741Z,99.90
2018-07-10T13:26:26.813Z,99.90
2018-07-10T13:31:29.964Z,99.90
2018-07-10T13:36:33.280Z,99.90
2018-07-10T13:41:36.884Z,99.90
2018-07-10T13:46:39.962Z,99.90
2018-07-10T13:51:43.272Z,99.90
2018-07-10T13:56:46.353Z,99.90
2018-07-10T14:01:49.713Z,99.90
2018-07-10T14:06:52.722Z,99.90
2018-07-10T14:11:55.755Z,99.90
2018-07-10T14:16:58.909Z,99.90
2018-07-10T14:22:01.949Z,99.90
2018-07-10T14:27:05.203Z,99.90
2018-07-10T14:32:08.610Z,99.90
2018-07-10T14:37:11.792Z,99.90
2018-07-10T14:42:15.193Z,99.90
2018-07-10T14:47:18.533Z,99.90
2018-07-10T14:52:21.706Z,99.90
2018-07-10T14:57:24.834Z,99.90
2018-07-10T15:02:27.907Z,99.90
2018-07-10T15:12:33.958Z,99.90
2018-07-10T15:18:40.332Z,99.90
2018-07-10T15:23:43.526Z,99.90
2018-07-10T15:28:47.643Z,99.90
2018-07-10T15:33:50.797Z,99.90
2018-07-10T15:38:54.352Z,99.90
2018-07-10T15:43:57.389Z,99.90
2018-07-10T15:49:00.549Z,99.90
2018-07-10T15:54:03.621Z,99.90
2018-07-10T15:59:06.678Z,99.90
2018-07-10T16:04:09.716Z,99.90
2018-07-10T16:09:18.217Z,99.90
2018-07-10T16:14:21.517Z,99.90
2018-07-10T16:19:32.031Z,99.90
2018-07-10T16:24:41.625Z,99.90
2018-07-10T16:29:44.638Z,99.90
2018-07-10T16:34:47.722Z,99.90
2018-07-10T16:39:50.745Z,99.90
2018-07-10T16:44:53.805Z,99.90
2018-07-10T16:50:00.807Z,99.90
2018-07-10T16:55:03.843Z,99.90
2018-07-10T17:00:06.920Z,99.90
2018-07-10T17:05:11.095Z,99.90
2018-07-10T17:10:14.729Z,99.90
2018-07-10T17:15:18.018Z,99.90
2018-07-10T17:20:21.143Z,99.90
2018-07-10T17:25:24.186Z,99.90
2018-07-10T17:35:30.148Z,99.90
2018-07-10T17:40:33.175Z,99.90
2018-07-10T17:45:36.412Z,99.90
2018-07-10T17:50:39.445Z,99.90
2018-07-10T17:55:42.476Z,99.90
2018-07-10T18:00:45.507Z,99.90
2018-07-10T18:05:48.727Z,99.90
2018-07-10T18:10:52.024Z,99.90
2018-07-10T18:15:55.072Z,99.90
2018-07-10T18:20:58.368Z,99.90
2018-07-10T18:26:01.418Z,99.90
2018-07-10T18:31:04.565Z,99.90
2018-07-10T18:36:07.604Z,99.90
2018-07-10T18:41:10.701Z,99.90
2018-07-10T18:46:13.722Z,99.90
2018-07-10T18:51:16.758Z,99.90
2018-07-10T18:56:20.416Z,99.90
2018-07-10T19:01:27.076Z,99.90
2018-07-10T19:06:30.109Z,99.90
2018-07-10T19:11:33.160Z,99.90
2018-07-10T19:16:36.226Z,99.90
2018-07-10T19:21:39.946Z,99.90
2018-07-10T19:26:42.972Z,99.90
2018-07-10T19:31:46.006Z,99.90
2018-07-10T19:36:49.042Z,99.90
2018-07-10T19:41:52.112Z,99.90
2018-07-10T19:51:58.816Z,99.90
2018-07-10T19:57:03.780Z,99.90
2018-07-10T20:02:06.812Z,99.90
2018-07-10T20:07:20.331Z,99.90
2018-07-10T20:12:28.783Z,99.90
2018-07-10T20:17:34.179Z,99.90
2018-07-10T20:22:49.030Z,99.90
2018-07-10T20:27:58.034Z,99.90
2018-07-10T20:33:21.009Z,99.90
2018-07-10T20:38:24.058Z,99.90
2018-07-10T20:43:27.100Z,99.90
2018-07-10T20:48:40.575Z,99.90
2018-07-10T20:55:03.242Z,99.90
2018-07-10T21:00:09.288Z,99.90
2018-07-10T21:05:14.052Z,99.90
2018-07-10T21:10:29.668Z,99.90
2018-07-10T21:15:43.630Z,99.90
2018-07-10T21:20:52.640Z,99.90
2018-07-10T21:26:04.776Z,99.90
2018-07-10T21:31:16.909Z,99.90
2018-07-10T21:36:22.837Z,99.90
2018-07-10T21:41:40.180Z,99.90
2018-07-10T21:47:55.817Z,99.90
2018-07-10T21:52:58.992Z,99.90
2018-07-10T21:58:04.235Z,99.90
2018-07-10T22:03:07.256Z,99.90
2018-07-10T22:08:11.757Z,99.90
2018-07-10T22:13:15.530Z,99.90
2018-07-10T22:18:18.765Z,99.90
2018-07-10T22:23:21.840Z,99.90
2018-07-10T22:28:24.866Z,99.90
2018-07-10T22:33:27.897Z,99.90
2018-07-10T22:38:30.965Z,99.90
2018-07-10T22:43:36.353Z,99.90
2018-07-10T22:48:39.906Z,99.90
2018-07-10T22:53:44.012Z,99.90
2018-07-10T22:58:47.068Z,99.90
2018-07-10T23:03:50.790Z,99.90
2018-07-10T23:08:54.064Z,99.90
2018-07-10T23:13:57.149Z,99.90
2018-07-10T23:19:00.981Z,99.90
2018-07-10T23:24:04.174Z,99.90
2018-07-10T23:29:07.189Z,99.90
2018-07-10T23:34:15.000Z,99.90
2018-07-10T23:39:20.100Z,99.90
2018-07-10T23:44:29.381Z,99.90
2018-07-10T23:49:32.427Z,99.90
2018-07-10T23:54:35.559Z,99.90
2018-07-10T23:59:38.627Z,99.90
